sensor_id;sensor_type;location;lat;lon;timestamp;temperature;humidity
14101;DHT22;7127;49.372;8.166;2023-03-23T00:01:20;18.30;41.80
14101;DHT22;7127;49.372;8.166;2023-03-23T00:03:51;18.30;41.80
14101;DHT22;7127;49.372;8.166;2023-03-23T00:06:19;18.20;41.80
14101;DHT22;7127;49.372;8.166;2023-03-23T00:08:48;18.20;41.80
14101;DHT22;7127;49.372;8.166;2023-03-23T00:11:23;18.20;41.80
14101;DHT22;7127;49.372;8.166;2023-03-23T00:13:52;18.20;41.90
14101;DHT22;7127;49.372;8.166;2023-03-23T00:16:21;18.20;42.00
14101;DHT22;7127;49.372;8.166;2023-03-23T00:18:57;18.20;42.00
14101;DHT22;7127;49.372;8.166;2023-03-23T00:21:26;18.20;42.00
14101;DHT22;7127;49.372;8.166;2023-03-23T00:23:59;18.30;42.10
14101;DHT22;7127;49.372;8.166;2023-03-23T00:26:26;18.10;42.00
14101;DHT22;7127;49.372;8.166;2023-03-23T00:28:55;18.20;42.20
14101;DHT22;7127;49.372;8.166;2023-03-23T00:31:22;18.20;42.10
14101;DHT22;7127;49.372;8.166;2023-03-23T00:33:49;18.10;42.10
14101;DHT22;7127;49.372;8.166;2023-03-23T00:36:17;18.20;42.30
14101;DHT22;7127;49.372;8.166;2023-03-23T00:38:48;18.10;42.30
14101;DHT22;7127;49.372;8.166;2023-03-23T00:41:15;17.80;42.00
14101;DHT22;7127;49.372;8.166;2023-03-23T00:43:42;18.00;42.20
14101;DHT22;7127;49.372;8.166;2023-03-23T00:46:09;18.00;42.30
14101;DHT22;7127;49.372;8.166;2023-03-23T00:48:37;18.10;42.40
14101;DHT22;7127;49.372;8.166;2023-03-23T00:51:10;17.90;42.40
14101;DHT22;7127;49.372;8.166;2023-03-23T00:53:39;17.90;42.50
14101;DHT22;7127;49.372;8.166;2023-03-23T00:56:07;17.90;42.60
14101;DHT22;7127;49.372;8.166;2023-03-23T00:58:34;17.80;42.70
14101;DHT22;7127;49.372;8.166;2023-03-23T01:01:01;17.80;42.70
14101;DHT22;7127;49.372;8.166;2023-03-23T01:03:29;17.70;42.70
14101;DHT22;7127;49.372;8.166;2023-03-23T01:05:56;18.00;43.60
14101;DHT22;7127;49.372;8.166;2023-03-23T01:08:23;17.80;42.80
14101;DHT22;7127;49.372;8.166;2023-03-23T01:11:02;17.80;42.80
14101;DHT22;7127;49.372;8.166;2023-03-23T01:13:29;17.80;43.00
14101;DHT22;7127;49.372;8.166;2023-03-23T01:15:56;17.80;42.90
14101;DHT22;7127;49.372;8.166;2023-03-23T01:18:23;17.70;42.80
14101;DHT22;7127;49.372;8.166;2023-03-23T01:20:50;17.80;42.90
14101;DHT22;7127;49.372;8.166;2023-03-23T01:23:17;17.80;42.90
14101;DHT22;7127;49.372;8.166;2023-03-23T01:25:44;17.80;42.90
14101;DHT22;7127;49.372;8.166;2023-03-23T01:28:12;17.80;43.00
14101;DHT22;7127;49.372;8.166;2023-03-23T01:30:40;17.80;43.00
14101;DHT22;7127;49.372;8.166;2023-03-23T01:33:07;17.70;43.00
14101;DHT22;7127;49.372;8.166;2023-03-23T01:35:37;17.70;43.00
14101;DHT22;7127;49.372;8.166;2023-03-23T01:38:04;17.70;43.00
14101;DHT22;7127;49.372;8.166;2023-03-23T01:40:31;17.70;43.00
14101;DHT22;7127;49.372;8.166;2023-03-23T01:42:58;17.80;43.10
14101;DHT22;7127;49.372;8.166;2023-03-23T01:45:31;17.70;43.10
14101;DHT22;7127;49.372;8.166;2023-03-23T01:48:05;17.80;43.30
14101;DHT22;7127;49.372;8.166;2023-03-23T01:50:37;17.80;43.30
14101;DHT22;7127;49.372;8.166;2023-03-23T01:53:08;17.70;43.30
14101;DHT22;7127;49.372;8.166;2023-03-23T01:55:38;17.80;43.30
14101;DHT22;7127;49.372;8.166;2023-03-23T01:58:06;17.80;43.30
14101;DHT22;7127;49.372;8.166;2023-03-23T02:00:36;17.80;43.30
14101;DHT22;7127;49.372;8.166;2023-03-23T02:03:06;17.80;43.40
14101;DHT22;7127;49.372;8.166;2023-03-23T02:05:37;17.80;43.30
14101;DHT22;7127;49.372;8.166;2023-03-23T02:08:06;17.70;43.40
14101;DHT22;7127;49.372;8.166;2023-03-23T02:10:35;17.70;43.40
14101;DHT22;7127;49.372;8.166;2023-03-23T02:13:05;17.70;43.50
14101;DHT22;7127;49.372;8.166;2023-03-23T02:15:43;17.70;43.60
14101;DHT22;7127;49.372;8.166;2023-03-23T02:18:20;17.70;43.60
14101;DHT22;7127;49.372;8.166;2023-03-23T02:24:10;17.70;44.10
14101;DHT22;7127;49.372;8.166;2023-03-23T02:26:50;17.70;43.90
14101;DHT22;7127;49.372;8.166;2023-03-23T02:29:32;17.70;43.80
14101;DHT22;7127;49.372;8.166;2023-03-23T02:32:12;17.70;44.10
14101;DHT22;7127;49.372;8.166;2023-03-23T02:34:45;17.70;44.00
14101;DHT22;7127;49.372;8.166;2023-03-23T02:37:21;17.70;43.90
14101;DHT22;7127;49.372;8.166;2023-03-23T02:39:52;17.70;44.00
14101;DHT22;7127;49.372;8.166;2023-03-23T02:42:22;17.70;43.90
14101;DHT22;7127;49.372;8.166;2023-03-23T02:44:50;17.70;43.80
14101;DHT22;7127;49.372;8.166;2023-03-23T02:47:20;17.60;43.70
14101;DHT22;7127;49.372;8.166;2023-03-23T02:49:53;17.70;43.90
14101;DHT22;7127;49.372;8.166;2023-03-23T02:52:23;17.80;44.10
14101;DHT22;7127;49.372;8.166;2023-03-23T02:54:52;17.70;44.10
14101;DHT22;7127;49.372;8.166;2023-03-23T02:57:20;17.70;44.10
14101;DHT22;7127;49.372;8.166;2023-03-23T02:59:48;17.70;44.10
14101;DHT22;7127;49.372;8.166;2023-03-23T03:02:18;17.70;44.10
14101;DHT22;7127;49.372;8.166;2023-03-23T03:04:48;17.70;44.10
14101;DHT22;7127;49.372;8.166;2023-03-23T03:07:35;17.70;44.10
14101;DHT22;7127;49.372;8.166;2023-03-23T03:10:10;17.60;44.10
14101;DHT22;7127;49.372;8.166;2023-03-23T03:12:46;17.60;44.10
14101;DHT22;7127;49.372;8.166;2023-03-23T03:15:25;17.70;44.20
14101;DHT22;7127;49.372;8.166;2023-03-23T03:18:00;17.70;44.30
14101;DHT22;7127;49.372;8.166;2023-03-23T03:20:31;17.70;44.40
14101;DHT22;7127;49.372;8.166;2023-03-23T03:23:01;17.70;44.40
14101;DHT22;7127;49.372;8.166;2023-03-23T03:25:28;17.70;44.40
14101;DHT22;7127;49.372;8.166;2023-03-23T03:27:56;17.60;44.40
14101;DHT22;7127;49.372;8.166;2023-03-23T03:30:27;17.60;44.40
14101;DHT22;7127;49.372;8.166;2023-03-23T03:32:56;17.60;44.50
14101;DHT22;7127;49.372;8.166;2023-03-23T03:35:26;17.40;44.30
14101;DHT22;7127;49.372;8.166;2023-03-23T03:37:53;17.60;44.60
14101;DHT22;7127;49.372;8.166;2023-03-23T03:40:22;17.70;44.70
14101;DHT22;7127;49.372;8.166;2023-03-23T03:42:49;17.60;44.70
14101;DHT22;7127;49.372;8.166;2023-03-23T03:45:18;17.60;44.70
14101;DHT22;7127;49.372;8.166;2023-03-23T03:47:46;17.50;44.60
14101;DHT22;7127;49.372;8.166;2023-03-23T03:50:13;17.50;44.60
14101;DHT22;7127;49.372;8.166;2023-03-23T03:52:42;17.50;44.70
14101;DHT22;7127;49.372;8.166;2023-03-23T03:55:10;17.50;44.70
14101;DHT22;7127;49.372;8.166;2023-03-23T03:57:39;17.50;44.80
14101;DHT22;7127;49.372;8.166;2023-03-23T04:00:08;17.50;44.80
14101;DHT22;7127;49.372;8.166;2023-03-23T04:02:41;17.50;44.90
14101;DHT22;7127;49.372;8.166;2023-03-23T04:05:08;17.50;44.90
14101;DHT22;7127;49.372;8.166;2023-03-23T04:07:35;17.50;44.90
14101;DHT22;7127;49.372;8.166;2023-03-23T04:10:05;17.60;45.00
14101;DHT22;7127;49.372;8.166;2023-03-23T04:12:33;17.50;45.00
14101;DHT22;7127;49.372;8.166;2023-03-23T04:15:03;17.50;45.10
14101;DHT22;7127;49.372;8.166;2023-03-23T04:17:30;17.50;45.30
14101;DHT22;7127;49.372;8.166;2023-03-23T04:19:59;17.50;45.50
14101;DHT22;7127;49.372;8.166;2023-03-23T04:22:28;17.50;45.60
14101;DHT22;7127;49.372;8.166;2023-03-23T04:24:57;17.50;45.50
14101;DHT22;7127;49.372;8.166;2023-03-23T04:27:26;17.50;45.50
14101;DHT22;7127;49.372;8.166;2023-03-23T04:29:54;17.50;45.70
14101;DHT22;7127;49.372;8.166;2023-03-23T04:32:25;17.50;45.90
14101;DHT22;7127;49.372;8.166;2023-03-23T04:34:55;17.50;46.10
14101;DHT22;7127;49.372;8.166;2023-03-23T04:37:22;17.50;46.20
14101;DHT22;7127;49.372;8.166;2023-03-23T04:39:54;17.50;46.20
14101;DHT22;7127;49.372;8.166;2023-03-23T04:42:26;17.40;46.20
14101;DHT22;7127;49.372;8.166;2023-03-23T04:44:54;17.40;46.30
14101;DHT22;7127;49.372;8.166;2023-03-23T04:47:21;17.40;46.30
14101;DHT22;7127;49.372;8.166;2023-03-23T04:49:49;17.40;46.40
14101;DHT22;7127;49.372;8.166;2023-03-23T04:52:17;17.40;46.60
14101;DHT22;7127;49.372;8.166;2023-03-23T04:54:46;17.30;46.60
14101;DHT22;7127;49.372;8.166;2023-03-23T04:57:13;17.40;46.60
14101;DHT22;7127;49.372;8.166;2023-03-23T04:59:41;17.40;46.70
14101;DHT22;7127;49.372;8.166;2023-03-23T05:02:10;17.40;46.70
14101;DHT22;7127;49.372;8.166;2023-03-23T05:04:39;17.40;46.80
14101;DHT22;7127;49.372;8.166;2023-03-23T05:07:08;17.40;46.80
14101;DHT22;7127;49.372;8.166;2023-03-23T05:09:35;17.40;46.80
14101;DHT22;7127;49.372;8.166;2023-03-23T05:12:06;17.30;46.70
14101;DHT22;7127;49.372;8.166;2023-03-23T05:14:34;17.40;46.80
14101;DHT22;7127;49.372;8.166;2023-03-23T05:17:02;17.30;46.70
14101;DHT22;7127;49.372;8.166;2023-03-23T05:19:29;17.30;46.70
14101;DHT22;7127;49.372;8.166;2023-03-23T05:21:57;17.30;46.70
14101;DHT22;7127;49.372;8.166;2023-03-23T05:24:30;17.30;46.70
14101;DHT22;7127;49.372;8.166;2023-03-23T05:26:58;17.40;46.80
14101;DHT22;7127;49.372;8.166;2023-03-23T05:29:25;17.30;46.70
14101;DHT22;7127;49.372;8.166;2023-03-23T05:31:55;17.40;46.70
14101;DHT22;7127;49.372;8.166;2023-03-23T05:34:25;17.40;46.80
14101;DHT22;7127;49.372;8.166;2023-03-23T05:36:53;17.40;46.80
14101;DHT22;7127;49.372;8.166;2023-03-23T05:39:21;17.40;46.90
14101;DHT22;7127;49.372;8.166;2023-03-23T05:41:49;17.40;46.90
14101;DHT22;7127;49.372;8.166;2023-03-23T05:44:17;17.40;46.90
14101;DHT22;7127;49.372;8.166;2023-03-23T05:46:44;17.40;47.10
14101;DHT22;7127;49.372;8.166;2023-03-23T05:49:11;17.40;47.00
14101;DHT22;7127;49.372;8.166;2023-03-23T05:51:39;17.30;47.00
14101;DHT22;7127;49.372;8.166;2023-03-23T05:54:06;17.40;47.30
14101;DHT22;7127;49.372;8.166;2023-03-23T05:56:34;17.40;47.10
14101;DHT22;7127;49.372;8.166;2023-03-23T05:59:02;17.40;47.20
14101;DHT22;7127;49.372;8.166;2023-03-23T06:01:30;17.30;47.20
14101;DHT22;7127;49.372;8.166;2023-03-23T06:03:57;17.30;47.30
14101;DHT22;7127;49.372;8.166;2023-03-23T06:06:24;17.30;47.20
14101;DHT22;7127;49.372;8.166;2023-03-23T06:08:51;17.30;47.30
14101;DHT22;7127;49.372;8.166;2023-03-23T06:11:18;17.30;47.40
14101;DHT22;7127;49.372;8.166;2023-03-23T06:13:45;17.20;47.30
14101;DHT22;7127;49.372;8.166;2023-03-23T06:16:14;17.30;47.40
14101;DHT22;7127;49.372;8.166;2023-03-23T06:18:41;17.40;47.70
14101;DHT22;7127;49.372;8.166;2023-03-23T06:21:08;17.40;47.50
14101;DHT22;7127;49.372;8.166;2023-03-23T06:23:35;17.40;47.60
14101;DHT22;7127;49.372;8.166;2023-03-23T06:26:05;17.40;47.60
14101;DHT22;7127;49.372;8.166;2023-03-23T06:28:32;17.40;47.80
14101;DHT22;7127;49.372;8.166;2023-03-23T06:31:00;17.40;47.70
14101;DHT22;7127;49.372;8.166;2023-03-23T06:33:28;17.50;47.80
14101;DHT22;7127;49.372;8.166;2023-03-23T06:35:55;17.40;47.70
14101;DHT22;7127;49.372;8.166;2023-03-23T06:38:23;17.40;47.60
14101;DHT22;7127;49.372;8.166;2023-03-23T06:40:51;17.40;47.70
14101;DHT22;7127;49.372;8.166;2023-03-23T06:43:19;17.50;47.80
14101;DHT22;7127;49.372;8.166;2023-03-23T06:45:46;17.50;47.80
14101;DHT22;7127;49.372;8.166;2023-03-23T06:48:13;17.50;47.90
14101;DHT22;7127;49.372;8.166;2023-03-23T06:50:43;17.60;48.00
14101;DHT22;7127;49.372;8.166;2023-03-23T06:53:11;17.70;48.20
14101;DHT22;7127;49.372;8.166;2023-03-23T06:55:38;17.50;48.10
14101;DHT22;7127;49.372;8.166;2023-03-23T06:58:06;17.50;48.00
14101;DHT22;7127;49.372;8.166;2023-03-23T07:00:33;17.60;48.10
14101;DHT22;7127;49.372;8.166;2023-03-23T07:03:00;17.60;48.40
14101;DHT22;7127;49.372;8.166;2023-03-23T07:05:28;17.50;48.30
14101;DHT22;7127;49.372;8.166;2023-03-23T07:07:56;17.50;48.50
14101;DHT22;7127;49.372;8.166;2023-03-23T07:10:23;17.60;48.70
14101;DHT22;7127;49.372;8.166;2023-03-23T07:12:50;17.50;48.60
14101;DHT22;7127;49.372;8.166;2023-03-23T07:15:17;17.50;48.70
14101;DHT22;7127;49.372;8.166;2023-03-23T07:17:44;17.40;48.90
14101;DHT22;7127;49.372;8.166;2023-03-23T07:20:12;17.40;49.00
14101;DHT22;7127;49.372;8.166;2023-03-23T07:22:40;17.40;49.30
14101;DHT22;7127;49.372;8.166;2023-03-23T07:25:08;17.40;49.30
14101;DHT22;7127;49.372;8.166;2023-03-23T07:27:36;17.40;49.50
14101;DHT22;7127;49.372;8.166;2023-03-23T07:30:03;17.30;49.40
14101;DHT22;7127;49.372;8.166;2023-03-23T07:32:30;17.40;49.40
14101;DHT22;7127;49.372;8.166;2023-03-23T07:34:57;17.50;49.70
14101;DHT22;7127;49.372;8.166;2023-03-23T07:37:24;17.40;49.50
14101;DHT22;7127;49.372;8.166;2023-03-23T07:39:51;17.30;49.40
14101;DHT22;7127;49.372;8.166;2023-03-23T07:42:20;17.30;49.50
14101;DHT22;7127;49.372;8.166;2023-03-23T07:44:47;17.20;49.70
14101;DHT22;7127;49.372;8.166;2023-03-23T07:47:14;17.30;49.70
14101;DHT22;7127;49.372;8.166;2023-03-23T07:49:43;17.30;49.80
14101;DHT22;7127;49.372;8.166;2023-03-23T07:52:10;17.30;49.80
14101;DHT22;7127;49.372;8.166;2023-03-23T07:54:38;17.30;49.90
14101;DHT22;7127;49.372;8.166;2023-03-23T07:57:06;17.30;50.20
14101;DHT22;7127;49.372;8.166;2023-03-23T07:59:34;17.30;50.00
14101;DHT22;7127;49.372;8.166;2023-03-23T08:02:01;17.40;50.00
14101;DHT22;7127;49.372;8.166;2023-03-23T08:04:29;17.40;50.10
14101;DHT22;7127;49.372;8.166;2023-03-23T08:07:02;17.60;50.60
14101;DHT22;7127;49.372;8.166;2023-03-23T08:09:29;17.40;50.20
14101;DHT22;7127;49.372;8.166;2023-03-23T08:11:56;17.50;50.20
14101;DHT22;7127;49.372;8.166;2023-03-23T08:14:24;17.50;50.30
14101;DHT22;7127;49.372;8.166;2023-03-23T08:16:54;17.50;50.20
14101;DHT22;7127;49.372;8.166;2023-03-23T08:19:21;17.60;50.10
14101;DHT22;7127;49.372;8.166;2023-03-23T08:21:48;17.50;50.10
14101;DHT22;7127;49.372;8.166;2023-03-23T08:24:15;17.60;50.30
14101;DHT22;7127;49.372;8.166;2023-03-23T08:26:42;17.60;50.10
14101;DHT22;7127;49.372;8.166;2023-03-23T08:29:09;17.60;50.10
14101;DHT22;7127;49.372;8.166;2023-03-23T08:31:37;17.70;50.30
14101;DHT22;7127;49.372;8.166;2023-03-23T08:34:06;17.60;50.30
14101;DHT22;7127;49.372;8.166;2023-03-23T08:36:34;17.70;50.40
14101;DHT22;7127;49.372;8.166;2023-03-23T08:39:03;17.60;50.30
14101;DHT22;7127;49.372;8.166;2023-03-23T08:41:34;17.80;50.60
14101;DHT22;7127;49.372;8.166;2023-03-23T08:44:01;17.80;50.40
14101;DHT22;7127;49.372;8.166;2023-03-23T08:46:28;17.90;50.70
14101;DHT22;7127;49.372;8.166;2023-03-23T08:48:55;17.90;50.70
14101;DHT22;7127;49.372;8.166;2023-03-23T08:51:24;18.10;50.90
14101;DHT22;7127;49.372;8.166;2023-03-23T08:53:51;18.10;51.00
14101;DHT22;7127;49.372;8.166;2023-03-23T08:56:20;18.00;50.90
14101;DHT22;7127;49.372;8.166;2023-03-23T08:58:47;18.20;50.90
14101;DHT22;7127;49.372;8.166;2023-03-23T09:01:14;18.30;50.90
14101;DHT22;7127;49.372;8.166;2023-03-23T09:03:41;18.30;50.80
14101;DHT22;7127;49.372;8.166;2023-03-23T09:06:09;18.50;50.80
14101;DHT22;7127;49.372;8.166;2023-03-23T09:08:39;18.60;50.80
14101;DHT22;7127;49.372;8.166;2023-03-23T09:11:08;18.60;50.40
14101;DHT22;7127;49.372;8.166;2023-03-23T09:13:36;18.70;50.30
14101;DHT22;7127;49.372;8.166;2023-03-23T09:16:04;18.60;50.10
14101;DHT22;7127;49.372;8.166;2023-03-23T09:18:32;18.70;50.00
14101;DHT22;7127;49.372;8.166;2023-03-23T09:21:01;18.70;50.00
14101;DHT22;7127;49.372;8.166;2023-03-23T09:23:29;18.70;49.90
14101;DHT22;7127;49.372;8.166;2023-03-23T09:25:59;18.70;50.00
14101;DHT22;7127;49.372;8.166;2023-03-23T09:28:30;18.70;50.10
14101;DHT22;7127;49.372;8.166;2023-03-23T09:30:57;18.70;50.30
14101;DHT22;7127;49.372;8.166;2023-03-23T09:33:38;18.70;50.40
14101;DHT22;7127;49.372;8.166;2023-03-23T09:39:47;18.80;51.50
14101;DHT22;7127;49.372;8.166;2023-03-23T09:42:35;18.80;50.90
14101;DHT22;7127;49.372;8.166;2023-03-23T09:45:13;18.80;51.40
14101;DHT22;7127;49.372;8.166;2023-03-23T09:50:50;18.90;52.00
14101;DHT22;7127;49.372;8.166;2023-03-23T09:53:26;18.90;51.30
14101;DHT22;7127;49.372;8.166;2023-03-23T09:58:42;19.00;51.00
14101;DHT22;7127;49.372;8.166;2023-03-23T10:01:16;19.00;51.00
14101;DHT22;7127;49.372;8.166;2023-03-23T10:03:47;19.00;51.00
14101;DHT22;7127;49.372;8.166;2023-03-23T10:06:16;19.00;50.80
14101;DHT22;7127;49.372;8.166;2023-03-23T10:08:46;19.00;51.60
14101;DHT22;7127;49.372;8.166;2023-03-23T10:11:21;19.00;51.10
14101;DHT22;7127;49.372;8.166;2023-03-23T10:17:17;19.10;51.30
14101;DHT22;7127;49.372;8.166;2023-03-23T10:19:53;19.10;51.30
14101;DHT22;7127;49.372;8.166;2023-03-23T10:22:31;19.20;51.40
14101;DHT22;7127;49.372;8.166;2023-03-23T10:25:15;19.20;51.40
14101;DHT22;7127;49.372;8.166;2023-03-23T10:27:49;19.30;51.70
14101;DHT22;7127;49.372;8.166;2023-03-23T10:30:29;19.40;51.70
14101;DHT22;7127;49.372;8.166;2023-03-23T10:33:18;19.50;51.90
14101;DHT22;7127;49.372;8.166;2023-03-23T10:38:55;19.60;52.20
14101;DHT22;7127;49.372;8.166;2023-03-23T10:43:13;19.60;52.10
14101;DHT22;7127;49.372;8.166;2023-03-23T10:45:35;19.80;52.00
14101;DHT22;7127;49.372;8.166;2023-03-23T10:48:08;19.80;51.80
14101;DHT22;7127;49.372;8.166;2023-03-23T10:51:13;19.80;51.70
14101;DHT22;7127;49.372;8.166;2023-03-23T10:54:02;20.00;52.00
14101;DHT22;7127;49.372;8.166;2023-03-23T11:15:27;20.10;51.00
14101;DHT22;7127;49.372;8.166;2023-03-23T11:17:55;20.10;51.00
14101;DHT22;7127;49.372;8.166;2023-03-23T11:20:24;20.00;50.90
14101;DHT22;7127;49.372;8.166;2023-03-23T11:22:52;20.10;51.00
14101;DHT22;7127;49.372;8.166;2023-03-23T11:25:19;20.10;51.00
14101;DHT22;7127;49.372;8.166;2023-03-23T11:27:46;20.10;51.00
14101;DHT22;7127;49.372;8.166;2023-03-23T11:30:22;20.20;51.30
14101;DHT22;7127;49.372;8.166;2023-03-23T11:32:50;20.30;51.30
14101;DHT22;7127;49.372;8.166;2023-03-23T11:35:20;20.30;51.20
14101;DHT22;7127;49.372;8.166;2023-03-23T11:37:50;20.50;51.20
14101;DHT22;7127;49.372;8.166;2023-03-23T11:40:20;20.60;50.90
14101;DHT22;7127;49.372;8.166;2023-03-23T11:42:49;20.60;50.60
14101;DHT22;7127;49.372;8.166;2023-03-23T11:45:19;20.70;50.40
14101;DHT22;7127;49.372;8.166;2023-03-23T11:48:03;20.70;50.30
14101;DHT22;7127;49.372;8.166;2023-03-23T11:50:34;20.80;50.00
14101;DHT22;7127;49.372;8.166;2023-03-23T11:53:08;20.80;50.00
14101;DHT22;7127;49.372;8.166;2023-03-23T11:55:52;20.80;49.80
14101;DHT22;7127;49.372;8.166;2023-03-23T11:58:21;20.90;49.80
14101;DHT22;7127;49.372;8.166;2023-03-23T12:00:53;20.80;49.90
14101;DHT22;7127;49.372;8.166;2023-03-23T12:03:27;20.80;49.90
14101;DHT22;7127;49.372;8.166;2023-03-23T12:06:02;20.80;50.00
14101;DHT22;7127;49.372;8.166;2023-03-23T12:08:43;20.80;50.00
14101;DHT22;7127;49.372;8.166;2023-03-23T12:11:19;20.80;49.90
14101;DHT22;7127;49.372;8.166;2023-03-23T12:14:02;20.90;49.80
14101;DHT22;7127;49.372;8.166;2023-03-23T12:16:38;21.00;49.80
14101;DHT22;7127;49.372;8.166;2023-03-23T12:19:15;21.00;49.60
14101;DHT22;7127;49.372;8.166;2023-03-23T12:21:50;21.00;49.50
14101;DHT22;7127;49.372;8.166;2023-03-23T12:24:29;21.20;49.20
14101;DHT22;7127;49.372;8.166;2023-03-23T12:27:01;21.10;49.60
14101;DHT22;7127;49.372;8.166;2023-03-23T12:32:36;21.20;49.60
14101;DHT22;7127;49.372;8.166;2023-03-23T12:35:14;21.30;49.60
14101;DHT22;7127;49.372;8.166;2023-03-23T12:37:53;21.30;49.40
14101;DHT22;7127;49.372;8.166;2023-03-23T12:40:36;21.30;49.40
14101;DHT22;7127;49.372;8.166;2023-03-23T12:43:15;21.30;49.30
14101;DHT22;7127;49.372;8.166;2023-03-23T12:48:54;21.40;49.30
14101;DHT22;7127;49.372;8.166;2023-03-23T12:51:29;21.50;49.40
14101;DHT22;7127;49.372;8.166;2023-03-23T12:54:03;21.40;49.00
14101;DHT22;7127;49.372;8.166;2023-03-23T12:56:37;21.40;49.00
14101;DHT22;7127;49.372;8.166;2023-03-23T12:59:11;21.50;48.80
14101;DHT22;7127;49.372;8.166;2023-03-23T13:01:41;21.50;48.80
14101;DHT22;7127;49.372;8.166;2023-03-23T13:04:11;21.60;48.60
14101;DHT22;7127;49.372;8.166;2023-03-23T13:06:42;21.60;48.60
14101;DHT22;7127;49.372;8.166;2023-03-23T13:09:15;21.60;48.60
14101;DHT22;7127;49.372;8.166;2023-03-23T13:11:44;21.60;48.20
14101;DHT22;7127;49.372;8.166;2023-03-23T13:14:24;21.70;48.50
14101;DHT22;7127;49.372;8.166;2023-03-23T13:17:01;21.70;48.50
14101;DHT22;7127;49.372;8.166;2023-03-23T13:19:51;21.70;48.40
14101;DHT22;7127;49.372;8.166;2023-03-23T13:22:27;21.80;48.30
14101;DHT22;7127;49.372;8.166;2023-03-23T13:24:58;21.80;48.10
14101;DHT22;7127;49.372;8.166;2023-03-23T13:27:28;22.00;48.30
14101;DHT22;7127;49.372;8.166;2023-03-23T13:29:56;21.80;47.90
14101;DHT22;7127;49.372;8.166;2023-03-23T13:32:35;21.80;47.90
14101;DHT22;7127;49.372;8.166;2023-03-23T13:35:04;21.80;47.50
14101;DHT22;7127;49.372;8.166;2023-03-23T13:37:33;21.80;47.50
14101;DHT22;7127;49.372;8.166;2023-03-23T13:40:16;21.80;48.00
14101;DHT22;7127;49.372;8.166;2023-03-23T13:42:50;21.80;47.10
14101;DHT22;7127;49.372;8.166;2023-03-23T13:45:22;21.70;47.30
14101;DHT22;7127;49.372;8.166;2023-03-23T13:48:01;21.60;47.20
14101;DHT22;7127;49.372;8.166;2023-03-23T13:50:30;21.50;47.10
14101;DHT22;7127;49.372;8.166;2023-03-23T13:53:00;21.50;47.10
14101;DHT22;7127;49.372;8.166;2023-03-23T13:55:40;21.40;47.00
14101;DHT22;7127;49.372;8.166;2023-03-23T13:58:21;21.40;47.00
14101;DHT22;7127;49.372;8.166;2023-03-23T14:01:00;21.20;46.90
14101;DHT22;7127;49.372;8.166;2023-03-23T14:03:34;21.20;47.10
14101;DHT22;7127;49.372;8.166;2023-03-23T14:06:04;21.10;47.10
14101;DHT22;7127;49.372;8.166;2023-03-23T14:08:42;21.00;47.10
14101;DHT22;7127;49.372;8.166;2023-03-23T14:11:13;20.90;47.00
14101;DHT22;7127;49.372;8.166;2023-03-23T14:13:45;20.90;47.10
14101;DHT22;7127;49.372;8.166;2023-03-23T14:16:18;20.80;47.20
14101;DHT22;7127;49.372;8.166;2023-03-23T14:18:52;20.80;47.40
14101;DHT22;7127;49.372;8.166;2023-03-23T14:21:31;20.70;47.30
14101;DHT22;7127;49.372;8.166;2023-03-23T14:24:02;20.60;47.40
14101;DHT22;7127;49.372;8.166;2023-03-23T14:26:32;20.60;47.50
14101;DHT22;7127;49.372;8.166;2023-03-23T14:28:59;20.60;47.60
14101;DHT22;7127;49.372;8.166;2023-03-23T14:31:27;20.40;47.60
14101;DHT22;7127;49.372;8.166;2023-03-23T14:33:56;20.50;47.80
14101;DHT22;7127;49.372;8.166;2023-03-23T14:36:27;20.40;47.80
14101;DHT22;7127;49.372;8.166;2023-03-23T14:39:02;20.40;47.90
14101;DHT22;7127;49.372;8.166;2023-03-23T14:41:31;20.30;48.00
14101;DHT22;7127;49.372;8.166;2023-03-23T14:44:01;20.30;48.10
14101;DHT22;7127;49.372;8.166;2023-03-23T14:46:35;20.20;48.20
14101;DHT22;7127;49.372;8.166;2023-03-23T14:49:04;20.20;48.20
14101;DHT22;7127;49.372;8.166;2023-03-23T14:51:31;20.20;48.40
14101;DHT22;7127;49.372;8.166;2023-03-23T14:53:59;20.20;48.40
14101;DHT22;7127;49.372;8.166;2023-03-23T14:56:36;20.10;48.40
14101;DHT22;7127;49.372;8.166;2023-03-23T14:59:05;20.10;48.60
14101;DHT22;7127;49.372;8.166;2023-03-23T15:01:36;20.10;48.50
14101;DHT22;7127;49.372;8.166;2023-03-23T15:04:06;20.00;48.60
14101;DHT22;7127;49.372;8.166;2023-03-23T15:06:35;20.10;48.90
14101;DHT22;7127;49.372;8.166;2023-03-23T15:09:05;20.10;48.90
14101;DHT22;7127;49.372;8.166;2023-03-23T15:11:36;20.10;48.90
14101;DHT22;7127;49.372;8.166;2023-03-23T15:14:10;20.10;49.00
14101;DHT22;7127;49.372;8.166;2023-03-23T15:16:40;20.10;49.00
14101;DHT22;7127;49.372;8.166;2023-03-23T15:19:16;20.10;49.10
14101;DHT22;7127;49.372;8.166;2023-03-23T15:21:49;20.00;49.00
14101;DHT22;7127;49.372;8.166;2023-03-23T15:24:24;20.10;49.40
14101;DHT22;7127;49.372;8.166;2023-03-23T15:26:54;20.10;49.50
14101;DHT22;7127;49.372;8.166;2023-03-23T15:29:29;20.00;49.60
14101;DHT22;7127;49.372;8.166;2023-03-23T15:31:56;19.90;49.80
14101;DHT22;7127;49.372;8.166;2023-03-23T15:34:31;19.90;50.10
14101;DHT22;7127;49.372;8.166;2023-03-23T15:37:00;19.90;50.40
14101;DHT22;7127;49.372;8.166;2023-03-23T15:39:28;20.00;50.50
14101;DHT22;7127;49.372;8.166;2023-03-23T15:41:57;19.90;50.60
14101;DHT22;7127;49.372;8.166;2023-03-23T15:44:28;19.80;50.80
14101;DHT22;7127;49.372;8.166;2023-03-23T15:47:10;19.90;50.90
14101;DHT22;7127;49.372;8.166;2023-03-23T15:49:38;19.90;51.30
14101;DHT22;7127;49.372;8.166;2023-03-23T15:52:09;19.90;51.10
14101;DHT22;7127;49.372;8.166;2023-03-23T15:54:36;19.90;51.20
14101;DHT22;7127;49.372;8.166;2023-03-23T15:57:04;19.80;51.20
14101;DHT22;7127;49.372;8.166;2023-03-23T15:59:31;19.80;51.30
14101;DHT22;7127;49.372;8.166;2023-03-23T16:01:58;19.90;51.40
14101;DHT22;7127;49.372;8.166;2023-03-23T16:04:25;19.80;51.30
14101;DHT22;7127;49.372;8.166;2023-03-23T16:06:55;19.80;51.30
14101;DHT22;7127;49.372;8.166;2023-03-23T16:09:23;19.80;51.50
14101;DHT22;7127;49.372;8.166;2023-03-23T16:11:50;19.80;51.40
14101;DHT22;7127;49.372;8.166;2023-03-23T16:14:18;19.70;51.40
14101;DHT22;7127;49.372;8.166;2023-03-23T16:16:47;19.70;51.40
14101;DHT22;7127;49.372;8.166;2023-03-23T16:19:15;19.70;51.40
14101;DHT22;7127;49.372;8.166;2023-03-23T16:21:42;19.70;51.30
14101;DHT22;7127;49.372;8.166;2023-03-23T16:24:09;19.60;51.30
14101;DHT22;7127;49.372;8.166;2023-03-23T16:26:37;19.60;51.40
14101;DHT22;7127;49.372;8.166;2023-03-23T16:29:10;19.50;51.40
14101;DHT22;7127;49.372;8.166;2023-03-23T16:31:39;19.60;51.60
14101;DHT22;7127;49.372;8.166;2023-03-23T16:34:06;19.60;51.50
14101;DHT22;7127;49.372;8.166;2023-03-23T16:36:33;19.40;51.50
14101;DHT22;7127;49.372;8.166;2023-03-23T16:39:01;19.40;51.50
14101;DHT22;7127;49.372;8.166;2023-03-23T16:41:27;19.50;51.60
14101;DHT22;7127;49.372;8.166;2023-03-23T16:43:55;19.40;51.50
14101;DHT22;7127;49.372;8.166;2023-03-23T16:46:22;19.50;51.60
14101;DHT22;7127;49.372;8.166;2023-03-23T16:48:50;19.60;51.70
14101;DHT22;7127;49.372;8.166;2023-03-23T16:51:19;19.50;51.60